Time;durP1;ratioP1;P1;durP2;ratioP2;P2;SDS_P1;SDS_P2;PMS_P1;PMS_P2;Temp;Humidity;BMP_temperature;BMP_pressure;BME280_temperature;BME280_humidity;BME280_pressure;Samples;Min_cycle;Max_cycle;Signal;HPM_P1;HPM_P2
2021/04/27 00:00:46;;;;;;;10.66;5.06;;;;;;;7.68;42.64;99135.26;367540;108;1962979;-72
2021/04/27 00:01:54;;;;;;;10.64;4.61;;;;;;;7.69;42.51;99128.84;370416;107;1961958;-72
2021/04/27 00:03:00;;;;;;;9.28;4.08;;;;;;;7.60;43.00;99130.05;332760;109;2573984;-72
2021/04/27 00:04:06;;;;;;;10.49;4.43;;;;;;;7.63;42.86;99132.34;354101;107;1963012;-72
2021/04/27 00:05:15;;;;;;;9.46;5.03;;;;;;;7.56;43.29;99136.02;368725;107;1961921;-72
2021/04/27 00:06:21;;;;;;;9.38;4.61;;;;;;;7.59;43.16;99132.92;370229;107;1962053;-72
2021/04/27 00:07:27;;;;;;;10.55;4.44;;;;;;;7.42;43.88;99130.58;371599;107;1962000;-72
2021/04/27 00:08:33;;;;;;;9.21;4.45;;;;;;;7.53;43.39;99129.19;368821;107;1963836;-72
2021/04/27 00:09:41;;;;;;;9.13;4.83;;;;;;;7.48;43.66;99134.33;329703;107;2655000;-72
2021/04/27 00:10:48;;;;;;;8.48;4.33;;;;;;;7.56;43.38;99130.64;370075;107;1961958;-73
2021/04/27 00:11:54;;;;;;;7.73;4.00;;;;;;;7.60;43.28;99131.92;329080;107;2664042;-73
2021/04/27 00:13:01;;;;;;;7.31;4.17;;;;;;;7.57;43.27;99137.67;337300;107;1961124;-72
2021/04/27 00:14:07;;;;;;;10.62;4.58;;;;;;;7.53;43.79;99141.80;370629;107;1963034;-73
2021/04/27 00:15:23;;;;;;;10.39;4.65;;;;;;;7.44;43.97;99139.28;370188;107;1961927;-72
2021/04/27 00:16:28;;;;;;;13.30;4.83;;;;;;;7.56;43.78;99136.02;318505;107;2127910;-72
2021/04/27 00:17:34;;;;;;;9.64;4.58;;;;;;;7.55;43.63;99135.20;343066;107;1964010;-72
2021/04/27 00:18:40;;;;;;;11.48;4.46;;;;;;;7.48;44.23;99137.02;368951;107;1961932;-72
2021/04/27 00:19:45;;;;;;;10.14;4.22;;;;;;;7.52;43.96;99142.84;371595;107;1961888;-72
2021/04/27 00:20:53;;;;;;;8.84;4.01;;;;;;;7.39;44.46;99138.22;346435;107;2339976;-72
2021/04/27 00:21:59;;;;;;;8.57;4.43;;;;;;;7.48;44.00;99137.02;353797;107;1961915;-73
2021/04/27 00:23:04;;;;;;;10.73;4.09;;;;;;;7.40;44.27;99140.69;370226;107;1961960;-71
2021/04/27 00:24:09;;;;;;;8.66;4.26;;;;;;;7.38;44.50;99136.54;370949;107;1961997;-72
2021/04/27 00:25:14;;;;;;;9.92;4.39;;;;;;;7.31;44.69;99141.06;369653;107;1961973;-72
2021/04/27 00:26:21;;;;;;;8.09;4.57;;;;;;;7.37;44.58;99146.47;369472;107;1960969;-72
2021/04/27 00:27:27;;;;;;;10.56;5.31;;;;;;;7.32;44.68;99143.54;329848;107;2665966;-73
2021/04/27 00:28:32;;;;;;;11.67;5.18;;;;;;;7.35;44.60;99142.31;366091;107;1961951;-73
2021/04/27 00:29:38;;;;;;;10.23;4.65;;;;;;;7.36;44.47;99144.81;372816;107;1962043;-72
2021/04/27 00:30:44;;;;;;;9.59;4.53;;;;;;;7.24;45.22;99149.07;370009;106;1962017;-73
2021/04/27 00:31:50;;;;;;;9.22;4.55;;;;;;;7.25;45.14;99142.66;370368;107;1962068;-72
2021/04/27 00:32:57;;;;;;;11.78;5.63;;;;;;;7.24;45.29;99147.20;324460;108;2764927;-73
2021/04/27 00:34:02;;;;;;;10.31;4.56;;;;;;;7.23;45.12;99164.36;368526;107;1963991;-72
2021/04/27 00:35:09;;;;;;;8.68;4.49;;;;;;;7.26;45.07;99150.53;371400;104;1961931;-73
2021/04/27 00:36:27;;;;;;;9.93;4.85;;;;;;;7.24;45.02;99155.27;312195;111;2059876;-72
2021/04/27 00:37:32;;;;;;;11.27;4.80;;;;;;;7.24;45.15;99149.07;367437;108;1961955;-73
2021/04/27 00:38:37;;;;;;;8.74;4.71;;;;;;;7.25;45.05;99154.26;366630;108;1964097;-72
2021/04/27 00:39:42;;;;;;;9.24;4.87;;;;;;;7.18;45.43;99158.75;367602;108;1960775;-72
2021/04/27 00:40:49;;;;;;;10.73;5.14;;;;;;;7.12;45.33;99154.17;368288;108;1962009;-72
2021/04/27 00:41:55;;;;;;;8.95;4.06;;;;;;;7.13;45.70;99153.13;317590;104;2828757;-71
2021/04/27 00:43:00;;;;;;;8.58;4.11;;;;;;;7.10;45.71;99152.70;350955;109;1961960;-74
2021/04/27 00:44:07;;;;;;;9.11;4.33;;;;;;;7.01;46.12;99152.86;364318;109;1961948;-72
2021/04/27 00:45:19;;;;;;;9.19;4.40;;;;;;;7.02;46.44;99153.68;364319;109;1964974;-72
2021/04/27 00:46:25;;;;;;;9.44;3.88;;;;;;;7.07;45.79;99155.79;362883;109;1961988;-71
2021/04/27 00:47:31;;;;;;;8.77;4.11;;;;;;;7.02;46.18;99153.68;364718;109;1960887;-72
2021/04/27 00:48:37;;;;;;;9.36;3.80;;;;;;;6.95;46.44;99147.42;362009;109;1961944;-72
2021/04/27 00:49:43;;;;;;;8.11;3.36;;;;;;;6.97;46.45;99148.89;320186;109;2725933;-71
2021/04/27 00:50:51;;;;;;;10.46;4.63;;;;;;;6.95;46.60;99148.25;362405;109;1962896;-71
2021/04/27 00:51:57;;;;;;;9.05;4.47;;;;;;;6.96;46.44;99146.39;362579;109;1962010;-72
2021/04/27 00:53:04;;;;;;;8.79;4.21;;;;;;;6.92;47.15;99148.64;361876;109;1961932;-72
2021/04/27 00:54:09;;;;;;;9.93;4.46;;;;;;;6.97;46.67;99148.06;362349;109;1962024;-71
2021/04/27 00:55:15;;;;;;;6.33;3.66;;;;;;;6.96;46.74;99155.30;361577;109;1962053;-71
2021/04/27 00:56:22;;;;;;;7.91;3.85;;;;;;;6.93;47.17;99154.84;361236;110;1963977;-72
2021/04/27 00:57:27;;;;;;;7.89;3.69;;;;;;;6.95;46.84;99156.30;308666;109;2189420;-72
2021/04/27 00:58:33;;;;;;;8.40;3.71;;;;;;;6.93;47.01;99160.20;342857;109;1961976;-71
2021/04/27 00:59:39;;;;;;;9.78;3.73;;;;;;;6.96;46.80;99157.13;362276;109;1962030;-72
2021/04/27 01:00:47;;;;;;;8.19;3.91;;;;;;;6.93;46.77;99161.06;361423;109;1962003;-72
2021/04/27 01:01:54;;;;;;;8.70;3.74;;;;;;;6.94;46.75;99154.66;364590;110;1963991;-72
2021/04/27 01:03:11;;;;;;;7.89;3.89;;;;;;;6.86;47.28;99162.86;360448;109;1962038;-72
2021/04/27 01:04:16;;;;;;;7.38;4.10;;;;;;;6.81;47.51;99162.61;337226;110;2410908;-72
2021/04/27 01:05:25;;;;;;;9.86;4.21;;;;;;;6.80;47.61;99153.73;340365;111;1962031;-71
2021/04/27 01:06:31;;;;;;;9.53;3.87;;;;;;;6.79;48.11;99151.23;300747;114;2183905;-72
2021/04/27 01:07:40;;;;;;;8.90;3.90;;;;;;;6.76;47.79;99162.35;329282;112;1961933;-72
2021/04/27 01:09:05;;;;;;;9.12;3.97;;;;;;;6.75;47.96;99153.48;324388;112;2493891;-72
2021/04/27 01:10:13;;;;;;;9.24;3.67;;;;;;;6.78;47.86;99157.63;324985;113;1962048;-72
2021/04/27 01:11:47;;;;;;;7.72;3.60;;;;;;;6.75;47.74;99148.11;351154;114;1961942;-72
2021/04/27 01:12:56;;;;;;;8.81;3.55;;;;;;;6.70;48.33;99160.45;353402;114;1962010;-72
2021/04/27 01:14:11;;;;;;;9.72;3.72;;;;;;;6.61;48.73;99157.05;355352;110;1961956;-71
2021/04/27 01:15:23;;;;;;;9.49;3.88;;;;;;;6.72;48.49;99155.70;358683;111;1962053;-71
2021/04/27 01:16:31;;;;;;;8.26;4.08;;;;;;;6.75;47.92;99153.48;306798;113;2786028;-71
2021/04/27 01:17:40;;;;;;;7.75;3.47;;;;;;;6.76;48.21;99162.35;350592;113;1963944;-72
2021/04/27 01:18:49;;;;;;;9.63;3.93;;;;;;;6.59;49.30;99161.80;351894;113;1963528;-72
2021/04/27 01:20:19;;;;;;;7.48;3.63;;;;;;;6.65;48.53;99157.52;351294;113;1962036;-71
2021/04/27 01:21:28;;;;;;;7.91;3.58;;;;;;;6.65;48.74;99158.34;342815;113;1961126;-71
2021/04/27 01:22:58;;;;;;;7.61;3.38;;;;;;;6.67;48.39;99150.08;315931;113;2000243;-71
2021/04/27 01:24:13;;;;;;;6.99;3.27;;;;;;;6.66;48.69;99161.84;326476;113;1961978;-70
2021/04/27 01:25:52;;;;;;;9.42;3.92;;;;;;;6.60;48.52;99158.91;342573;113;1960982;-73
2021/04/27 01:27:00;;;;;;;8.02;3.76;;;;;;;6.60;48.53;99161.59;314494;113;1969925;-72
2021/04/27 01:28:07;;;;;;;11.32;4.78;;;;;;;6.52;49.40;99160.91;351671;113;1961968;-72
2021/04/27 01:29:16;;;;;;;8.83;3.85;;;;;;;6.51;49.66;99161.91;351516;113;1961883;-72
2021/04/27 01:30:23;;;;;;;8.14;3.81;;;;;;;6.50;49.16;99168.31;332798;115;1961896;-71
2021/04/27 01:31:29;;;;;;;8.61;3.78;;;;;;;6.22;50.14;99171.75;346209;113;1961862;-72
2021/04/27 01:32:37;;;;;;;7.91;3.92;;;;;;;6.05;50.55;99160.41;351798;115;1962080;-73
2021/04/27 01:33:45;;;;;;;9.76;3.73;;;;;;;5.99;50.93;99160.35;351812;113;1961958;-73
2021/04/27 01:34:53;;;;;;;7.90;3.66;;;;;;;5.98;50.69;99169.39;326177;113;1963938;-72
2021/04/27 01:36:03;;;;;;;9.16;3.95;;;;;;;5.94;50.82;99160.91;348070;113;1962030;-71
2021/04/27 01:37:13;;;;;;;7.10;3.43;;;;;;;5.97;51.25;99167.75;351812;115;1965899;-72
2021/04/27 01:38:20;;;;;;;7.08;3.30;;;;;;;5.93;51.30;99169.95;349729;113;1962946;-72
2021/04/27 01:39:27;;;;;;;10.60;4.93;;;;;;;5.90;51.50;99168.48;315108;113;1993330;-72
2021/04/27 01:40:34;;;;;;;8.08;3.31;;;;;;;5.95;51.30;99159.88;350473;113;1960933;-71
2021/04/27 01:41:41;;;;;;;9.42;4.17;;;;;;;6.00;50.80;99156.64;318195;113;2583026;-71
2021/04/27 01:42:47;;;;;;;7.55;2.91;;;;;;;5.95;51.04;99162.56;350727;113;1961843;-71
2021/04/27 01:44:04;;;;;;;6.48;3.32;;;;;;;5.89;51.75;99156.08;351315;113;1961965;-71
2021/04/27 01:45:12;;;;;;;7.45;3.46;;;;;;;5.99;51.02;99166.54;373543;106;1961981;-73
2021/04/27 01:46:19;;;;;;;8.95;3.89;;;;;;;5.97;51.39;99160.53;371480;106;1961914;-71
2021/04/27 01:47:25;;;;;;;6.98;3.41;;;;;;;5.95;51.32;99157.20;374259;106;1962837;-72
2021/04/27 01:48:36;;;;;;;12.16;5.47;;;;;;;5.97;51.09;99155.17;373286;106;1960819;-73
2021/04/27 01:49:44;;;;;;;13.18;6.23;;;;;;;5.98;51.63;99162.21;373504;106;1961883;-72
2021/04/27 01:51:10;;;;;;;13.91;5.86;;;;;;;6.00;51.88;99168.19;346868;106;2922055;-72
2021/04/27 01:52:28;;;;;;;12.25;5.04;;;;;;;6.02;51.38;99166.16;313413;107;2217980;-72
2021/04/27 01:53:41;;;;;;;14.12;6.26;;;;;;;6.00;51.94;99168.19;372766;106;1962113;-72
2021/04/27 01:54:48;;;;;;;12.93;6.32;;;;;;;6.05;51.71;99167.63;337244;106;2924998;-72
2021/04/27 01:55:53;;;;;;;12.34;6.11;;;;;;;6.03;51.28;99165.13;358253;106;1965914;-73
2021/04/27 01:56:58;;;;;;;10.12;4.65;;;;;;;5.92;52.16;99158.38;373568;106;1962983;-72
2021/04/27 01:58:04;;;;;;;7.22;3.46;;;;;;;6.01;51.92;99172.55;374251;106;1965077;-72
2021/04/27 01:59:11;;;;;;;8.82;4.36;;;;;;;6.05;51.61;99164.95;375745;106;1962998;-73
2021/04/27 02:00:29;;;;;;;8.18;3.46;;;;;;;5.97;52.21;99159.70;374642;106;1961940;-71
2021/04/27 02:01:34;;;;;;;7.15;3.80;;;;;;;5.95;52.42;99165.23;354763;112;1965021;-72
2021/04/27 02:02:42;;;;;;;7.23;3.14;;;;;;;5.93;52.28;99172.63;353641;113;1962981;-72
2021/04/27 02:03:50;;;;;;;8.83;3.12;;;;;;;5.98;52.09;99172.08;352052;113;1962064;-72
2021/04/27 02:05:11;;;;;;;6.85;3.25;;;;;;;5.96;52.15;99172.28;322891;123;1964064;-72
2021/04/27 02:06:21;;;;;;;8.02;2.97;;;;;;;5.96;52.32;99166.09;335066;111;1966854;-72
2021/04/27 02:07:28;;;;;;;6.74;3.84;;;;;;;5.96;52.15;99177.64;359694;111;1961919;-72
2021/04/27 02:08:34;;;;;;;7.71;3.93;;;;;;;6.01;51.83;99167.19;360381;111;1962003;-72
2021/04/27 02:09:51;;;;;;;9.59;3.73;;;;;;;5.98;52.18;99161.35;348914;111;1962033;-72
2021/04/27 02:11:00;;;;;;;6.32;2.67;;;;;;;5.94;52.87;99166.27;327116;109;2595012;-72
2021/04/27 02:12:07;;;;;;;7.33;3.66;;;;;;;5.97;52.38;99165.89;361267;110;1963009;-72
2021/04/27 02:13:16;;;;;;;7.72;3.57;;;;;;;5.95;52.36;99173.28;361384;110;1962010;-72
2021/04/27 02:14:36;;;;;;;7.65;3.04;;;;;;;5.89;52.78;99164.11;362340;110;1963987;-72
2021/04/27 02:15:42;;;;;;;7.72;3.07;;;;;;;5.93;52.62;99170.81;361848;110;1962068;-72
2021/04/27 02:17:09;;;;;;;5.93;3.02;;;;;;;5.89;53.07;99163.30;333365;112;1961991;-72
2021/04/27 02:18:22;;;;;;;6.47;3.17;;;;;;;5.85;53.01;99178.93;356143;112;1963955;-71
2021/04/27 02:19:29;;;;;;;;;;;;;;;5.82;52.91;99171.27;325709;110;2675936;-71
2021/04/27 02:20:37;;;;;;;12.19;5.67;;;;;;;5.83;53.29;99185.49;359959;110;1962014;-71
2021/04/27 02:21:48;;;;;;;10.71;4.56;;;;;;;5.78;53.40;99174.50;339180;110;2353632;-73
2021/04/27 02:22:56;;;;;;;9.74;4.22;;;;;;;5.81;53.25;99176.80;363945;110;1963996;-73
2021/04/27 02:24:19;;;;;;;9.71;4.32;;;;;;;5.83;53.33;99186.32;351303;113;1961946;-72
2021/04/27 02:25:26;;;;;;;8.72;4.46;;;;;;;5.83;53.25;99175.59;361203;110;1963937;-72
2021/04/27 02:26:33;;;;;;;10.01;4.86;;;;;;;5.85;52.83;99178.93;335170;112;2297997;-71
2021/04/27 02:27:42;;;;;;;16.72;7.53;;;;;;;5.86;53.22;99179.75;361245;110;1962063;-71
2021/04/27 02:28:49;;;;;;;8.02;3.23;;;;;;;5.87;53.01;99176.87;356885;108;1959765;-72
2021/04/27 02:29:57;;;;;;;10.07;4.13;;;;;;;5.76;53.75;99185.39;314665;111;2761890;-72
2021/04/27 02:31:03;;;;;;;9.16;3.41;;;;;;;5.80;53.30;99175.16;360103;110;1962055;-72
2021/04/27 02:32:11;;;;;;;6.72;2.98;;;;;;;5.80;53.47;99170.62;362357;110;1962042;-72
2021/04/27 02:33:21;;;;;;;6.58;3.24;;;;;;;5.82;53.49;99179.31;363192;110;1961944;-72
2021/04/27 02:34:27;;;;;;;5.81;2.89;;;;;;;5.77;54.01;99171.00;357829;112;1960680;-72
2021/04/27 02:35:32;;;;;;;8.25;3.59;;;;;;;5.77;53.90;99172.82;350143;115;1962008;-72
2021/04/27 02:36:42;;;;;;;8.36;3.58;;;;;;;5.80;53.92;99172.47;331876;113;1961971;-71
2021/04/27 02:37:51;;;;;;;5.78;3.12;;;;;;;5.82;53.74;99173.95;338305;113;2264855;-71
2021/04/27 02:38:58;;;;;;;8.26;3.41;;;;;;;5.81;53.72;99166.91;353902;113;1962019;-71
2021/04/27 02:40:06;;;;;;;6.22;3.26;;;;;;;5.77;54.15;99168.31;305201;113;2155432;-72
2021/04/27 02:41:12;;;;;;;7.19;2.76;;;;;;;5.72;54.21;99174.23;355325;113;1962024;-72
2021/04/27 02:42:26;;;;;;;5.85;2.74;;;;;;;5.77;54.03;99178.18;354121;113;1961934;-72
2021/04/27 02:43:32;;;;;;;8.74;3.68;;;;;;;5.73;54.17;99170.52;364682;109;1961988;-72
2021/04/27 02:44:38;;;;;;;10.94;4.17;;;;;;;5.77;54.11;99165.64;335002;108;2233989;-72
2021/04/27 02:45:44;;;;;;;10.22;3.94;;;;;;;5.76;54.05;99168.48;365892;109;1963961;-72
2021/04/27 02:47:13;;;;;;;9.05;3.82;;;;;;;5.79;53.92;99165.43;367348;108;1963999;-72
2021/04/27 02:48:21;;;;;;;9.69;3.29;;;;;;;5.78;53.89;99172.64;367109;108;1962070;-72
2021/04/27 02:49:27;;;;;;;8.07;3.37;;;;;;;5.80;53.87;99169.79;341274;108;2407996;-72
2021/04/27 02:50:39;;;;;;;8.46;3.66;;;;;;;5.75;54.42;99170.34;368642;108;1962966;-71
2021/04/27 02:51:44;;;;;;;7.14;2.91;;;;;;;5.72;54.46;99173.41;367396;108;1965931;-72
2021/04/27 02:52:51;;;;;;;7.47;3.51;;;;;;;5.75;54.42;99169.52;320152;108;2793910;-72
2021/04/27 02:53:58;;;;;;;7.64;3.19;;;;;;;5.77;54.11;99168.31;365627;108;1964020;-72
2021/04/27 02:55:04;;;;;;;7.27;3.06;;;;;;;5.79;53.99;99171.62;367405;108;1961999;-72
2021/04/27 02:56:11;;;;;;;9.73;3.94;;;;;;;5.80;53.92;99175.16;346095;108;1962012;-72
2021/04/27 02:57:19;;;;;;;8.06;3.64;;;;;;;5.81;54.09;99172.27;367074;110;1960802;-72
2021/04/27 02:58:26;;;;;;;7.97;3.13;;;;;;;5.81;54.34;99166.91;316196;110;2789997;-72
2021/04/27 02:59:33;;;;;;;8.75;3.41;;;;;;;5.83;53.95;99172.09;359209;110;1961939;-72
2021/04/27 03:00:41;;;;;;;6.41;3.31;;;;;;;5.81;54.44;99169.59;317856;108;2023350;-72
2021/04/27 03:01:47;;;;;;;7.73;3.44;;;;;;;5.77;54.55;99175.50;350061;113;1961920;-72
2021/04/27 03:02:54;;;;;;;6.72;3.03;;;;;;;5.76;54.62;99173.85;352176;113;1961982;-72
2021/04/27 03:04:03;;;;;;;9.81;3.19;;;;;;;5.75;54.59;99173.02;352471;113;1961914;-72
2021/04/27 03:05:11;;;;;;;7.31;3.36;;;;;;;5.78;54.29;99171.83;350373;113;1962024;-72
2021/04/27 03:06:19;;;;;;;8.46;3.48;;;;;;;5.77;54.37;99165.64;320653;113;2525123;-72
2021/04/27 03:07:39;;;;;;;8.61;3.81;;;;;;;5.77;54.46;99171.00;349645;113;1961923;-73
2021/04/27 03:08:44;;;;;;;10.43;3.74;;;;;;;5.77;54.63;99172.82;345057;113;1961944;-72
2021/04/27 03:09:50;;;;;;;9.32;3.72;;;;;;;5.77;54.75;99170.14;351031;113;1962037;-71
2021/04/27 03:10:55;;;;;;;7.97;3.52;;;;;;;5.76;54.67;99171.17;350451;113;1962182;-72
2021/04/27 03:12:01;;;;;;;7.37;3.41;;;;;;;5.80;54.26;99175.16;352332;113;1963001;-73
2021/04/27 03:13:07;;;;;;;7.19;3.48;;;;;;;5.77;54.84;99172.82;349490;113;1962013;-72
2021/04/27 03:14:14;;;;;;;8.37;2.89;;;;;;;5.79;54.44;99174.30;350839;113;1964023;-72
2021/04/27 03:15:22;;;;;;;6.13;3.16;;;;;;;5.80;54.46;99175.98;346024;115;1962102;-73
2021/04/27 03:16:28;;;;;;;7.03;2.97;;;;;;;5.79;54.85;99171.62;328330;113;1962027;-72
2021/04/27 03:17:34;;;;;;;6.17;2.84;;;;;;;5.80;54.99;99177.83;345958;115;1961992;-72
2021/04/27 03:18:39;;;;;;;6.14;3.06;;;;;;;5.81;54.62;99174.95;346320;115;1962025;-73
2021/04/27 03:19:45;;;;;;;9.99;3.57;;;;;;;5.81;54.71;99174.12;351523;115;1962004;-72
2021/04/27 03:20:52;;;;;;;5.97;3.18;;;;;;;5.84;54.56;99179.92;347552;113;1964991;-72
2021/04/27 03:22:05;;;;;;;7.58;3.45;;;;;;;5.82;54.75;99176.63;351061;115;1962022;-72
2021/04/27 03:23:12;;;;;;;6.25;3.26;;;;;;;5.82;54.54;99176.63;317999;115;1961982;-72
2021/04/27 03:24:17;;;;;;;6.92;3.30;;;;;;;5.79;54.53;99179.66;351842;115;1961797;-72
2021/04/27 03:25:23;;;;;;;9.72;3.03;;;;;;;5.77;54.92;99179.03;351830;113;1961962;-71
2021/04/27 03:26:31;;;;;;;8.33;2.84;;;;;;;5.79;54.76;99170.79;349504;113;1961960;-72
2021/04/27 03:27:50;;;;;;;7.31;3.51;;;;;;;5.78;55.04;99180.69;322856;113;1962072;-73
2021/04/27 03:28:57;;;;;;;7.33;2.96;;;;;;;5.76;55.38;99180.03;342223;118;1963026;-72
2021/04/27 03:30:08;;;;;;;9.31;3.03;;;;;;;5.78;55.03;99182.55;298889;117;2127559;-71
2021/04/27 03:31:14;;;;;;;8.74;3.94;;;;;;;5.83;54.67;99175.59;352256;113;1961960;-72
2021/04/27 03:32:19;;;;;;;7.59;3.24;;;;;;;5.82;55.08;99183.81;323527;113;2496975;-72
2021/04/27 03:33:25;;;;;;;6.18;3.28;;;;;;;5.86;54.65;99185.94;329536;113;1961983;-72
2021/04/27 03:34:31;;;;;;;7.41;3.28;;;;;;;5.88;55.21;99178.55;350498;113;1962990;-72
2021/04/27 03:35:42;;;;;;;6.88;3.30;;;;;;;5.89;54.47;99182.05;328091;113;2364008;-72
2021/04/27 03:36:46;;;;;;;6.82;3.36;;;;;;;5.87;55.06;99182.23;352298;113;1963963;-72
2021/04/27 03:37:53;;;;;;;7.69;3.38;;;;;;;5.86;55.13;99177.90;351323;115;1962890;-72
2021/04/27 03:38:58;;;;;;;6.81;3.05;;;;;;;5.87;54.95;99182.23;286722;116;2227646;-72
2021/04/27 03:40:05;;;;;;;7.36;3.62;;;;;;;5.92;54.60;99187.03;317299;116;1962054;-72
2021/04/27 03:41:11;;;;;;;7.63;3.27;;;;;;;5.91;55.28;99209.52;341679;116;1961937;-72
2021/04/27 03:42:24;;;;;;;8.64;4.17;;;;;;;5.93;54.50;99188.72;285653;118;2238607;-72
2021/04/27 03:43:31;;;;;;;8.96;4.16;;;;;;;5.93;54.83;99192.25;366319;107;1963834;-72
2021/04/27 03:44:38;;;;;;;8.95;3.73;;;;;;;5.96;54.53;99191.05;331773;109;2575893;-72
2021/04/27 03:45:43;;;;;;;9.03;3.66;;;;;;;5.96;55.05;99190.22;368777;107;1961978;-72
2021/04/27 03:46:49;;;;;;;8.21;3.68;;;;;;;5.85;55.44;99194.19;367909;108;1962044;-72
2021/04/27 03:47:55;;;;;;;9.61;4.53;;;;;;;5.87;55.26;99194.81;369863;107;1960869;-72
2021/04/27 03:49:02;;;;;;;7.96;4.47;;;;;;;5.91;55.17;99194.25;355903;105;2230088;-72
2021/04/27 03:50:17;;;;;;;9.62;5.33;;;;;;;5.91;55.47;99194.25;372676;106;1961972;-72
2021/04/27 03:51:25;;;;;;;12.32;5.51;;;;;;;5.96;54.99;99192.91;372874;107;1961051;-72
2021/04/27 03:52:36;;;;;;;8.41;5.59;;;;;;;6.08;54.94;99196.74;373826;107;1961944;-72
2021/04/27 03:53:52;;;;;;;9.58;5.00;;;;;;;6.21;54.47;99194.22;373358;107;1960848;-72
2021/04/27 03:55:10;;;;;;;10.68;5.39;;;;;;;6.15;54.28;99192.30;371508;108;1962046;-72
2021/04/27 03:56:16;;;;;;;10.91;5.38;;;;;;;6.18;54.48;99188.41;367610;108;1962979;-73
2021/04/27 03:57:22;;;;;;;7.30;3.39;;;;;;;6.18;54.57;99193.77;367471;108;1962039;-73
2021/04/27 03:58:32;;;;;;;7.49;3.72;;;;;;;6.15;54.40;99194.98;366757;108;1964001;-72
2021/04/27 03:59:38;;;;;;;12.06;5.09;;;;;;;6.17;54.68;99192.95;367499;108;1962046;-72
2021/04/27 04:00:45;;;;;;;7.81;3.85;;;;;;;6.15;54.61;99189.61;360499;108;1961947;-72
2021/04/27 04:01:54;;;;;;;8.82;4.14;;;;;;;6.13;54.57;99191.65;323374;108;2716004;-73
2021/04/27 04:03:00;;;;;;;8.27;4.15;;;;;;;6.10;54.71;99186.67;366835;108;1962930;-71
2021/04/27 04:04:08;;;;;;;8.78;3.48;;;;;;;6.05;55.05;99197.95;368318;108;1962935;-71
2021/04/27 04:05:14;;;;;;;8.04;3.76;;;;;;;6.11;54.63;99188.31;330597;108;1989838;-71
2021/04/27 04:06:23;;;;;;;9.20;4.44;;;;;;;6.13;54.58;99191.65;368100;108;1961997;-71
2021/04/27 04:07:30;;;;;;;7.79;4.16;;;;;;;6.09;54.76;99195.74;368587;108;1962000;-71
2021/04/27 04:08:54;;;;;;;7.82;3.49;;;;;;;6.14;54.64;99198.69;367125;108;1964026;-72
2021/04/27 04:10:04;;;;;;;6.67;3.42;;;;;;;6.17;54.55;99200.99;328480;108;2015354;-72
2021/04/27 04:11:11;;;;;;;9.05;3.99;;;;;;;6.20;54.64;99192.56;366725;108;1962014;-72
2021/04/27 04:12:28;;;;;;;10.24;4.33;;;;;;;6.29;54.34;99198.63;348813;108;2294754;-72
2021/04/27 04:13:35;;;;;;;9.56;4.68;;;;;;;6.26;54.58;99196.34;376509;105;1961923;-73
2021/04/27 04:14:41;;;;;;;7.84;4.02;;;;;;;6.32;54.24;99193.70;321462;105;2241010;-73
2021/04/27 04:15:48;;;;;;;8.42;4.54;;;;;;;6.26;54.54;99202.52;367428;107;1963990;-72
2021/04/27 04:16:55;;;;;;;6.89;3.69;;;;;;;6.30;54.52;99198.45;361417;110;1962016;-72
2021/04/27 04:18:01;;;;;;;8.07;3.55;;;;;;;6.36;54.25;99199.55;332977;109;2490036;-72
2021/04/27 04:19:06;;;;;;;8.31;4.04;;;;;;;6.37;54.17;99199.34;362272;106;1963957;-72
2021/04/27 04:20:19;;;;;;;8.88;4.01;;;;;;;6.40;54.13;99192.76;374685;106;1961940;-72
2021/04/27 04:21:27;;;;;;;9.23;3.89;;;;;;;6.45;53.95;99195.70;372717;106;1962022;-72
2021/04/27 04:22:37;;;;;;;9.15;4.14;;;;;;;6.48;53.97;99194.49;374180;106;1961978;-72
2021/04/27 04:23:46;;;;;;;8.26;3.56;;;;;;;6.44;54.26;99201.28;325671;106;2129760;-73
2021/04/27 04:24:51;;;;;;;8.90;4.89;;;;;;;6.42;54.05;99201.45;375111;106;1961916;-73
2021/04/27 04:25:58;;;;;;;8.21;3.70;;;;;;;6.39;54.41;99194.62;374886;106;1962013;-72
2021/04/27 04:27:04;;;;;;;9.51;5.17;;;;;;;6.46;54.12;99193.87;333291;106;2682975;-72
2021/04/27 04:28:24;;;;;;;7.85;3.60;;;;;;;6.49;53.83;99204.22;320669;111;2223949;-74
2021/04/27 04:29:29;;;;;;;7.09;3.41;;;;;;;6.50;53.87;99192.45;362035;109;1961967;-73
2021/04/27 04:30:55;;;;;;;7.94;4.03;;;;;;;6.47;53.97;99201.72;367636;107;1962083;-72
2021/04/27 04:32:18;;;;;;;6.98;3.17;;;;;;;6.57;53.69;99196.05;351070;106;1961955;-73
2021/04/27 04:33:43;;;;;;;7.58;3.55;;;;;;;6.62;53.40;99200.84;348031;106;2390017;-73
2021/04/27 04:35:09;;;;;;;7.25;3.53;;;;;;;6.67;53.50;99191.19;362863;106;2953001;-73
2021/04/27 04:36:33;;;;;;;8.44;3.58;;;;;;;6.68;53.56;99192.02;363400;109;1962046;-72
2021/04/27 04:37:41;;;;;;;7.80;3.72;;;;;;;6.72;53.22;99185.22;344922;114;1961949;-73
2021/04/27 04:38:50;;;;;;;8.70;3.88;;;;;;;6.72;53.38;99185.22;335069;116;1962911;-72
2021/04/27 04:40:17;;;;;;;7.19;3.71;;;;;;;6.72;53.40;99185.22;325960;106;2727980;-74
2021/04/27 04:41:41;;;;;;;6.87;3.29;;;;;;;6.73;53.25;99186.91;332423;103;2652026;-72
2021/04/27 04:43:17;;;;;;;8.40;3.91;;;;;;;6.74;53.14;99192.06;355545;103;1961625;-73
2021/04/27 04:44:41;;;;;;;8.06;3.72;;;;;;;6.72;53.33;99195.96;354928;111;1961955;-73
2021/04/27 04:45:58;;;;;;;7.87;3.82;;;;;;;6.74;53.36;99184.01;354646;112;1964043;-73
2021/04/27 04:47:21;;;;;;;10.38;3.97;;;;;;;6.68;53.37;99182.10;353222;112;1963958;-72
2021/04/27 04:48:47;;;;;;;7.74;3.40;;;;;;;6.76;53.09;99179.28;344524;115;1964023;-72
2021/04/27 04:49:54;;;;;;;7.66;4.01;;;;;;;6.84;52.89;99189.06;316511;115;1960931;-74
2021/04/27 04:51:19;;;;;;;11.46;4.13;;;;;;;6.82;52.85;99181.19;314653;107;2710612;-73
2021/04/27 04:52:27;;;;;;;11.87;4.24;;;;;;;6.83;52.95;99190.09;356342;109;1961967;-73
2021/04/27 04:53:33;;;;;;;8.69;3.73;;;;;;;6.88;53.05;99184.98;335517;107;2574981;-73
2021/04/27 04:54:40;;;;;;;9.86;4.77;;;;;;;6.91;52.90;99191.81;371454;107;1961971;-73
2021/04/27 04:55:48;;;;;;;8.63;3.74;;;;;;;6.98;52.80;99184.63;322787;107;2830073;-73
2021/04/27 04:56:58;;;;;;;7.02;3.55;;;;;;;7.01;52.66;99189.59;317202;105;2196450;-73
2021/04/27 04:58:04;;;;;;;7.70;3.23;;;;;;;6.99;52.48;99194.36;355999;106;1961907;-72
2021/04/27 04:59:14;;;;;;;7.96;3.34;;;;;;;6.96;52.41;99195.58;376363;106;1962085;-73
2021/04/27 05:00:22;;;;;;;7.35;3.70;;;;;;;6.94;52.47;99200.30;375281;106;1963965;-73
2021/04/27 05:01:47;;;;;;;7.84;3.47;;;;;;;6.97;52.25;99199.91;336122;109;2412016;-72
2021/04/27 05:03:09;;;;;;;11.00;4.16;;;;;;;7.01;52.26;99189.59;347043;114;1961944;-72
2021/04/27 05:04:19;;;;;;;9.86;3.91;;;;;;;7.08;52.02;99197.72;341222;115;1962974;-73
2021/04/27 05:05:43;;;;;;;6.56;3.18;;;;;;;7.00;52.47;99188.77;313099;113;1963023;-73
2021/04/27 05:07:06;;;;;;;6.91;3.33;;;;;;;7.09;52.00;99188.62;336852;119;1961920;-73
2021/04/27 05:08:32;;;;;;;6.27;3.41;;;;;;;6.99;52.20;99197.05;339648;115;1961918;-72
2021/04/27 05:09:51;;;;;;;9.75;3.59;;;;;;;6.99;52.34;99197.87;357177;110;1965062;-73
2021/04/27 05:11:01;;;;;;;7.07;3.55;;;;;;;7.07;52.18;99193.39;376071;105;1961999;-72
2021/04/27 05:12:09;;;;;;;6.62;3.55;;;;;;;7.03;52.31;99200.98;376224;107;1961968;-72
2021/04/27 05:13:28;;;;;;;7.55;3.82;;;;;;;7.13;51.98;99204.16;372638;107;1963978;-72
2021/04/27 05:14:38;;;;;;;7.34;3.32;;;;;;;7.19;51.86;99191.81;329505;105;2773968;-72
2021/04/27 05:15:44;;;;;;;8.51;4.32;;;;;;;7.23;51.72;99204.66;324533;107;2137638;-72
2021/04/27 05:16:51;;;;;;;8.47;3.98;;;;;;;7.30;51.61;99199.31;376224;106;1962978;-72
2021/04/27 05:17:59;;;;;;;5.71;3.02;;;;;;;7.36;51.44;99195.05;377278;107;1962012;-72
2021/04/27 05:19:15;;;;;;;7.33;3.71;;;;;;;7.48;51.26;99199.64;351968;105;1962022;-73
2021/04/27 05:20:24;;;;;;;7.37;3.46;;;;;;;7.56;50.91;99212.09;357136;111;1963945;-73
2021/04/27 05:21:41;;;;;;;10.93;3.86;;;;;;;7.59;50.56;99200.13;351913;114;1964937;-74
2021/04/27 05:22:47;;;;;;;7.62;4.47;;;;;;;7.51;50.71;99209.17;369020;107;1964950;-73
2021/04/27 05:23:53;;;;;;;7.05;3.49;;;;;;;7.55;50.73;99206.94;339294;108;2493027;-73
2021/04/27 05:24:58;;;;;;;7.38;3.02;;;;;;;7.59;50.61;99205.50;334116;109;1961947;-74